sensor_id;sensor_type;location;lat;lon;timestamp;P1;durP1;ratioP1;P2;durP2;ratioP2
2972;SDS011;1496;51.404;7.232;2023-12-22T00:01:25;8.50;;;2.03;;
2972;SDS011;1496;51.404;7.232;2023-12-22T00:03:51;8.40;;;1.50;;
2972;SDS011;1496;51.404;7.232;2023-12-22T00:06:17;3.60;;;1.30;;
2972;SDS011;1496;51.404;7.232;2023-12-22T00:08:43;10.30;;;1.60;;
2972;SDS011;1496;51.404;7.232;2023-12-22T00:11:09;6.30;;;1.77;;
2972;SDS011;1496;51.404;7.232;2023-12-22T00:13:35;10.33;;;2.47;;
2972;SDS011;1496;51.404;7.232;2023-12-22T00:16:01;9.93;;;1.77;;
2972;SDS011;1496;51.404;7.232;2023-12-22T00:18:26;8.60;;;2.00;;
2972;SDS011;1496;51.404;7.232;2023-12-22T00:20:52;1.60;;;1.17;;
2972;SDS011;1496;51.404;7.232;2023-12-22T00:23:18;4.37;;;1.80;;
2972;SDS011;1496;51.404;7.232;2023-12-22T00:25:44;5.80;;;1.53;;
2972;SDS011;1496;51.404;7.232;2023-12-22T00:28:10;5.17;;;1.30;;
2972;SDS011;1496;51.404;7.232;2023-12-22T00:30:35;8.63;;;3.00;;
2972;SDS011;1496;51.404;7.232;2023-12-22T00:33:01;3.20;;;1.10;;
2972;SDS011;1496;51.404;7.232;2023-12-22T00:35:27;4.40;;;1.50;;
2972;SDS011;1496;51.404;7.232;2023-12-22T00:37:53;5.40;;;1.30;;
2972;SDS011;1496;51.404;7.232;2023-12-22T00:40:19;5.43;;;1.50;;
2972;SDS011;1496;51.404;7.232;2023-12-22T00:42:45;13.40;;;1.90;;
2972;SDS011;1496;51.404;7.232;2023-12-22T00:45:10;7.20;;;2.70;;
2972;SDS011;1496;51.404;7.232;2023-12-22T00:47:36;6.20;;;2.30;;
2972;SDS011;1496;51.404;7.232;2023-12-22T00:50:02;5.67;;;1.50;;
2972;SDS011;1496;51.404;7.232;2023-12-22T00:52:29;2.57;;;2.07;;
2972;SDS011;1496;51.404;7.232;2023-12-22T00:54:55;5.00;;;1.70;;
2972;SDS011;1496;51.404;7.232;2023-12-22T00:57:21;5.23;;;1.17;;
2972;SDS011;1496;51.404;7.232;2023-12-22T00:59:47;3.30;;;1.20;;
2972;SDS011;1496;51.404;7.232;2023-12-22T01:02:13;10.57;;;1.40;;
2972;SDS011;1496;51.404;7.232;2023-12-22T01:04:39;9.13;;;1.83;;
2972;SDS011;1496;51.404;7.232;2023-12-22T01:07:07;4.60;;;1.67;;
2972;SDS011;1496;51.404;7.232;2023-12-22T01:09:33;6.43;;;1.40;;
2972;SDS011;1496;51.404;7.232;2023-12-22T01:11:59;4.50;;;1.17;;
2972;SDS011;1496;51.404;7.232;2023-12-22T01:14:27;3.53;;;1.20;;
2972;SDS011;1496;51.404;7.232;2023-12-22T01:16:53;6.07;;;1.23;;
2972;SDS011;1496;51.404;7.232;2023-12-22T01:19:19;17.60;;;1.77;;
2972;SDS011;1496;51.404;7.232;2023-12-22T01:21:45;8.03;;;2.80;;
2972;SDS011;1496;51.404;7.232;2023-12-22T01:24:11;5.80;;;1.70;;
2972;SDS011;1496;51.404;7.232;2023-12-22T01:26:37;11.00;;;1.70;;
2972;SDS011;1496;51.404;7.232;2023-12-22T01:29:02;6.53;;;1.77;;
2972;SDS011;1496;51.404;7.232;2023-12-22T01:31:28;6.83;;;2.17;;
2972;SDS011;1496;51.404;7.232;2023-12-22T01:33:54;10.47;;;2.07;;
2972;SDS011;1496;51.404;7.232;2023-12-22T01:36:19;4.20;;;1.57;;
2972;SDS011;1496;51.404;7.232;2023-12-22T01:38:45;2.97;;;1.70;;
2972;SDS011;1496;51.404;7.232;2023-12-22T01:41:11;3.33;;;1.00;;
2972;SDS011;1496;51.404;7.232;2023-12-22T01:43:36;6.10;;;0.80;;
2972;SDS011;1496;51.404;7.232;2023-12-22T01:46:02;4.30;;;1.17;;
2972;SDS011;1496;51.404;7.232;2023-12-22T01:48:29;3.57;;;1.40;;
2972;SDS011;1496;51.404;7.232;2023-12-22T01:50:56;5.77;;;1.43;;
2972;SDS011;1496;51.404;7.232;2023-12-22T01:53:24;0.90;;;0.60;;
2972;SDS011;1496;51.404;7.232;2023-12-22T01:55:51;1.00;;;0.70;;
2972;SDS011;1496;51.404;7.232;2023-12-22T01:58:19;7.57;;;1.00;;
2972;SDS011;1496;51.404;7.232;2023-12-22T02:00:47;2.50;;;0.80;;
2972;SDS011;1496;51.404;7.232;2023-12-22T02:03:13;5.80;;;1.00;;
2972;SDS011;1496;51.404;7.232;2023-12-22T02:05:40;3.00;;;0.70;;
2972;SDS011;1496;51.404;7.232;2023-12-22T02:08:06;5.73;;;1.00;;
2972;SDS011;1496;51.404;7.232;2023-12-22T02:10:32;4.60;;;1.07;;
2972;SDS011;1496;51.404;7.232;2023-12-22T02:12:58;2.27;;;0.80;;
2972;SDS011;1496;51.404;7.232;2023-12-22T02:15:23;3.87;;;1.10;;
2972;SDS011;1496;51.404;7.232;2023-12-22T02:20:23;3.53;;;1.83;;
2972;SDS011;1496;51.404;7.232;2023-12-22T02:22:52;5.50;;;1.20;;
2972;SDS011;1496;51.404;7.232;2023-12-22T02:25:18;2.97;;;0.70;;
2972;SDS011;1496;51.404;7.232;2023-12-22T02:27:53;3.73;;;1.50;;
2972;SDS011;1496;51.404;7.232;2023-12-22T02:32:59;5.10;;;1.00;;
2972;SDS011;1496;51.404;7.232;2023-12-22T02:35:28;5.27;;;0.97;;
2972;SDS011;1496;51.404;7.232;2023-12-22T02:37:58;5.63;;;1.10;;
2972;SDS011;1496;51.404;7.232;2023-12-22T02:40:26;3.77;;;1.20;;
2972;SDS011;1496;51.404;7.232;2023-12-22T02:42:52;3.83;;;1.13;;
2972;SDS011;1496;51.404;7.232;2023-12-22T02:45:19;4.80;;;1.10;;
2972;SDS011;1496;51.404;7.232;2023-12-22T02:47:45;7.00;;;1.23;;
2972;SDS011;1496;51.404;7.232;2023-12-22T02:50:12;4.00;;;1.20;;
2972;SDS011;1496;51.404;7.232;2023-12-22T02:52:40;7.70;;;1.73;;
2972;SDS011;1496;51.404;7.232;2023-12-22T02:55:05;3.53;;;1.30;;
2972;SDS011;1496;51.404;7.232;2023-12-22T02:57:31;7.00;;;1.20;;
2972;SDS011;1496;51.404;7.232;2023-12-22T02:59:57;4.67;;;2.13;;
2972;SDS011;1496;51.404;7.232;2023-12-22T03:02:23;4.57;;;1.23;;
2972;SDS011;1496;51.404;7.232;2023-12-22T03:04:49;10.00;;;1.30;;
2972;SDS011;1496;51.404;7.232;2023-12-22T03:07:15;9.43;;;1.17;;
2972;SDS011;1496;51.404;7.232;2023-12-22T03:09:44;7.60;;;1.90;;
2972;SDS011;1496;51.404;7.232;2023-12-22T03:12:09;4.10;;;1.30;;
2972;SDS011;1496;51.404;7.232;2023-12-22T03:14:36;7.80;;;1.53;;
2972;SDS011;1496;51.404;7.232;2023-12-22T03:17:05;10.13;;;1.30;;
2972;SDS011;1496;51.404;7.232;2023-12-22T03:19:32;5.73;;;2.40;;
2972;SDS011;1496;51.404;7.232;2023-12-22T03:21:58;9.53;;;1.40;;
2972;SDS011;1496;51.404;7.232;2023-12-22T03:24:25;7.67;;;1.57;;
2972;SDS011;1496;51.404;7.232;2023-12-22T03:26:51;10.77;;;1.63;;
2972;SDS011;1496;51.404;7.232;2023-12-22T03:29:17;11.20;;;1.93;;
2972;SDS011;1496;51.404;7.232;2023-12-22T03:31:44;10.83;;;2.67;;
2972;SDS011;1496;51.404;7.232;2023-12-22T03:34:10;3.97;;;2.00;;
2972;SDS011;1496;51.404;7.232;2023-12-22T03:36:36;9.70;;;1.97;;
2972;SDS011;1496;51.404;7.232;2023-12-22T03:39:02;11.40;;;2.20;;
2972;SDS011;1496;51.404;7.232;2023-12-22T03:41:28;7.13;;;1.73;;
2972;SDS011;1496;51.404;7.232;2023-12-22T03:43:55;3.67;;;1.30;;
2972;SDS011;1496;51.404;7.232;2023-12-22T03:46:21;6.77;;;1.93;;
2972;SDS011;1496;51.404;7.232;2023-12-22T03:48:47;9.97;;;1.80;;
2972;SDS011;1496;51.404;7.232;2023-12-22T03:51:12;5.57;;;2.47;;
2972;SDS011;1496;51.404;7.232;2023-12-22T03:53:40;11.07;;;2.40;;
2972;SDS011;1496;51.404;7.232;2023-12-22T03:56:06;4.70;;;1.80;;
2972;SDS011;1496;51.404;7.232;2023-12-22T03:58:33;10.90;;;2.20;;
2972;SDS011;1496;51.404;7.232;2023-12-22T04:01:00;7.07;;;2.63;;
2972;SDS011;1496;51.404;7.232;2023-12-22T04:03:25;16.87;;;3.20;;
2972;SDS011;1496;51.404;7.232;2023-12-22T04:05:51;7.53;;;1.80;;
2972;SDS011;1496;51.404;7.232;2023-12-22T04:08:17;5.63;;;1.90;;
2972;SDS011;1496;51.404;7.232;2023-12-22T04:10:43;4.80;;;1.87;;
2972;SDS011;1496;51.404;7.232;2023-12-22T04:13:09;7.30;;;2.50;;
2972;SDS011;1496;51.404;7.232;2023-12-22T04:15:35;18.03;;;2.53;;
2972;SDS011;1496;51.404;7.232;2023-12-22T04:18:00;14.43;;;2.13;;
2972;SDS011;1496;51.404;7.232;2023-12-22T04:20:26;9.70;;;2.17;;
2972;SDS011;1496;51.404;7.232;2023-12-22T04:22:52;10.20;;;3.37;;
2972;SDS011;1496;51.404;7.232;2023-12-22T04:25:17;14.10;;;3.17;;
2972;SDS011;1496;51.404;7.232;2023-12-22T04:27:43;9.53;;;1.90;;
2972;SDS011;1496;51.404;7.232;2023-12-22T04:30:10;7.53;;;2.57;;
2972;SDS011;1496;51.404;7.232;2023-12-22T04:32:36;7.87;;;2.23;;
2972;SDS011;1496;51.404;7.232;2023-12-22T04:35:01;7.83;;;1.13;;
2972;SDS011;1496;51.404;7.232;2023-12-22T04:37:27;5.27;;;1.73;;
2972;SDS011;1496;51.404;7.232;2023-12-22T04:39:53;14.67;;;2.00;;
2972;SDS011;1496;51.404;7.232;2023-12-22T04:42:18;6.27;;;1.77;;
2972;SDS011;1496;51.404;7.232;2023-12-22T04:44:44;9.90;;;2.50;;
2972;SDS011;1496;51.404;7.232;2023-12-22T04:47:10;7.50;;;1.73;;
2972;SDS011;1496;51.404;7.232;2023-12-22T04:49:37;6.00;;;1.23;;
2972;SDS011;1496;51.404;7.232;2023-12-22T04:52:03;3.57;;;1.00;;
2972;SDS011;1496;51.404;7.232;2023-12-22T04:54:29;5.93;;;1.47;;
2972;SDS011;1496;51.404;7.232;2023-12-22T04:56:55;8.37;;;1.43;;
2972;SDS011;1496;51.404;7.232;2023-12-22T04:59:20;7.07;;;1.30;;
2972;SDS011;1496;51.404;7.232;2023-12-22T05:01:46;9.47;;;1.03;;
2972;SDS011;1496;51.404;7.232;2023-12-22T05:04:12;2.07;;;0.70;;
2972;SDS011;1496;51.404;7.232;2023-12-22T05:06:37;1.53;;;0.83;;
2972;SDS011;1496;51.404;7.232;2023-12-22T05:09:03;4.33;;;1.00;;
2972;SDS011;1496;51.404;7.232;2023-12-22T05:11:29;1.93;;;0.80;;
2972;SDS011;1496;51.404;7.232;2023-12-22T05:13:55;8.40;;;1.20;;
2972;SDS011;1496;51.404;7.232;2023-12-22T05:16:20;2.73;;;1.63;;
2972;SDS011;1496;51.404;7.232;2023-12-22T05:18:46;1.97;;;1.30;;
2972;SDS011;1496;51.404;7.232;2023-12-22T05:21:12;5.80;;;1.27;;
2972;SDS011;1496;51.404;7.232;2023-12-22T05:23:39;7.93;;;1.30;;
2972;SDS011;1496;51.404;7.232;2023-12-22T05:26:05;5.43;;;1.90;;
2972;SDS011;1496;51.404;7.232;2023-12-22T05:28:32;2.63;;;0.90;;
2972;SDS011;1496;51.404;7.232;2023-12-22T05:30:57;1.70;;;0.93;;
2972;SDS011;1496;51.404;7.232;2023-12-22T05:33:23;6.00;;;1.40;;
2972;SDS011;1496;51.404;7.232;2023-12-22T05:35:49;6.23;;;1.27;;
2972;SDS011;1496;51.404;7.232;2023-12-22T05:38:14;5.40;;;1.47;;
2972;SDS011;1496;51.404;7.232;2023-12-22T05:40:40;10.73;;;1.50;;
2972;SDS011;1496;51.404;7.232;2023-12-22T05:43:06;8.47;;;1.33;;
2972;SDS011;1496;51.404;7.232;2023-12-22T05:45:32;9.80;;;2.23;;
2972;SDS011;1496;51.404;7.232;2023-12-22T05:47:58;4.17;;;1.30;;
2972;SDS011;1496;51.404;7.232;2023-12-22T05:50:24;5.20;;;1.60;;
2972;SDS011;1496;51.404;7.232;2023-12-22T05:52:50;2.93;;;1.20;;
2972;SDS011;1496;51.404;7.232;2023-12-22T05:55:15;6.63;;;1.73;;
2972;SDS011;1496;51.404;7.232;2023-12-22T05:57:41;4.03;;;1.43;;
2972;SDS011;1496;51.404;7.232;2023-12-22T06:00:07;5.83;;;1.23;;
2972;SDS011;1496;51.404;7.232;2023-12-22T06:02:35;8.07;;;2.10;;
2972;SDS011;1496;51.404;7.232;2023-12-22T06:05:00;6.20;;;2.10;;
2972;SDS011;1496;51.404;7.232;2023-12-22T06:07:26;2.87;;;1.27;;
2972;SDS011;1496;51.404;7.232;2023-12-22T06:09:52;2.90;;;1.23;;
2972;SDS011;1496;51.404;7.232;2023-12-22T06:12:18;7.57;;;1.23;;
2972;SDS011;1496;51.404;7.232;2023-12-22T06:14:44;8.87;;;1.93;;
2972;SDS011;1496;51.404;7.232;2023-12-22T06:17:10;5.43;;;1.67;;
2972;SDS011;1496;51.404;7.232;2023-12-22T06:19:36;10.57;;;1.70;;
2972;SDS011;1496;51.404;7.232;2023-12-22T06:22:02;6.40;;;1.33;;
2972;SDS011;1496;51.404;7.232;2023-12-22T06:24:28;8.07;;;1.63;;
2972;SDS011;1496;51.404;7.232;2023-12-22T06:26:53;18.27;;;2.20;;
2972;SDS011;1496;51.404;7.232;2023-12-22T06:29:19;4.23;;;1.93;;
2972;SDS011;1496;51.404;7.232;2023-12-22T06:31:45;2.63;;;1.47;;
2972;SDS011;1496;51.404;7.232;2023-12-22T06:34:16;3.93;;;1.93;;
2972;SDS011;1496;51.404;7.232;2023-12-22T06:36:42;7.40;;;2.33;;
2972;SDS011;1496;51.404;7.232;2023-12-22T06:39:08;8.03;;;1.70;;
2972;SDS011;1496;51.404;7.232;2023-12-22T06:41:34;6.17;;;2.43;;
2972;SDS011;1496;51.404;7.232;2023-12-22T06:44:00;5.57;;;2.00;;
2972;SDS011;1496;51.404;7.232;2023-12-22T06:46:26;5.67;;;1.73;;
2972;SDS011;1496;51.404;7.232;2023-12-22T06:48:52;8.90;;;2.20;;
2972;SDS011;1496;51.404;7.232;2023-12-22T06:51:29;7.50;;;1.50;;
2972;SDS011;1496;51.404;7.232;2023-12-22T06:53:56;7.43;;;2.33;;
2972;SDS011;1496;51.404;7.232;2023-12-22T06:56:25;8.73;;;1.40;;
2972;SDS011;1496;51.404;7.232;2023-12-22T06:58:52;12.53;;;1.50;;
2972;SDS011;1496;51.404;7.232;2023-12-22T07:04:01;6.83;;;1.77;;
2972;SDS011;1496;51.404;7.232;2023-12-22T07:06:29;14.90;;;1.83;;
2972;SDS011;1496;51.404;7.232;2023-12-22T07:08:56;2.70;;;1.33;;
2972;SDS011;1496;51.404;7.232;2023-12-22T07:11:49;13.30;;;1.77;;
2972;SDS011;1496;51.404;7.232;2023-12-22T07:14:16;8.37;;;2.10;;
2972;SDS011;1496;51.404;7.232;2023-12-22T07:16:42;21.07;;;2.57;;
2972;SDS011;1496;51.404;7.232;2023-12-22T07:19:08;4.17;;;2.10;;
2972;SDS011;1496;51.404;7.232;2023-12-22T07:21:36;7.43;;;1.53;;
2972;SDS011;1496;51.404;7.232;2023-12-22T07:24:01;9.03;;;1.83;;
2972;SDS011;1496;51.404;7.232;2023-12-22T07:26:27;16.30;;;1.80;;
2972;SDS011;1496;51.404;7.232;2023-12-22T07:28:53;11.27;;;2.13;;
2972;SDS011;1496;51.404;7.232;2023-12-22T07:31:19;12.60;;;2.20;;
2972;SDS011;1496;51.404;7.232;2023-12-22T07:33:45;10.30;;;2.50;;
2972;SDS011;1496;51.404;7.232;2023-12-22T07:36:11;10.47;;;2.40;;
2972;SDS011;1496;51.404;7.232;2023-12-22T07:38:37;14.37;;;3.70;;
2972;SDS011;1496;51.404;7.232;2023-12-22T07:41:06;17.90;;;3.13;;
2972;SDS011;1496;51.404;7.232;2023-12-22T07:43:32;11.23;;;2.40;;
2972;SDS011;1496;51.404;7.232;2023-12-22T07:45:57;6.90;;;2.10;;
2972;SDS011;1496;51.404;7.232;2023-12-22T07:48:24;10.93;;;2.90;;
2972;SDS011;1496;51.404;7.232;2023-12-22T07:50:50;7.07;;;1.97;;
2972;SDS011;1496;51.404;7.232;2023-12-22T07:53:15;8.97;;;2.70;;
2972;SDS011;1496;51.404;7.232;2023-12-22T07:55:41;10.00;;;2.10;;
2972;SDS011;1496;51.404;7.232;2023-12-22T07:58:08;9.47;;;2.57;;
2972;SDS011;1496;51.404;7.232;2023-12-22T08:00:34;5.73;;;2.63;;
2972;SDS011;1496;51.404;7.232;2023-12-22T08:02:59;13.43;;;2.80;;
2972;SDS011;1496;51.404;7.232;2023-12-22T08:05:25;8.67;;;2.17;;
2972;SDS011;1496;51.404;7.232;2023-12-22T08:07:51;9.27;;;2.10;;
2972;SDS011;1496;51.404;7.232;2023-12-22T08:10:17;7.50;;;1.90;;
2972;SDS011;1496;51.404;7.232;2023-12-22T08:12:43;10.90;;;2.30;;
2972;SDS011;1496;51.404;7.232;2023-12-22T08:15:08;12.33;;;2.00;;
2972;SDS011;1496;51.404;7.232;2023-12-22T08:17:37;8.87;;;2.33;;
2972;SDS011;1496;51.404;7.232;2023-12-22T08:20:11;12.83;;;3.40;;
2972;SDS011;1496;51.404;7.232;2023-12-22T08:22:40;10.97;;;2.50;;
2972;SDS011;1496;51.404;7.232;2023-12-22T08:25:06;7.30;;;3.03;;
2972;SDS011;1496;51.404;7.232;2023-12-22T08:27:32;10.37;;;2.80;;
2972;SDS011;1496;51.404;7.232;2023-12-22T08:29:58;15.30;;;2.93;;
2972;SDS011;1496;51.404;7.232;2023-12-22T08:32:24;19.10;;;4.47;;
2972;SDS011;1496;51.404;7.232;2023-12-22T08:34:49;14.13;;;3.63;;
2972;SDS011;1496;51.404;7.232;2023-12-22T08:37:15;10.90;;;2.77;;
2972;SDS011;1496;51.404;7.232;2023-12-22T08:39:40;12.73;;;3.40;;
2972;SDS011;1496;51.404;7.232;2023-12-22T08:42:06;22.00;;;3.23;;
2972;SDS011;1496;51.404;7.232;2023-12-22T08:44:32;20.60;;;2.57;;
2972;SDS011;1496;51.404;7.232;2023-12-22T08:46:57;28.27;;;3.53;;
2972;SDS011;1496;51.404;7.232;2023-12-22T08:49:23;16.77;;;3.77;;
2972;SDS011;1496;51.404;7.232;2023-12-22T08:51:49;23.67;;;3.27;;
2972;SDS011;1496;51.404;7.232;2023-12-22T08:54:15;24.43;;;4.63;;
2972;SDS011;1496;51.404;7.232;2023-12-22T08:56:41;19.63;;;4.27;;
2972;SDS011;1496;51.404;7.232;2023-12-22T08:59:07;20.13;;;3.37;;
2972;SDS011;1496;51.404;7.232;2023-12-22T09:01:34;20.37;;;3.93;;
2972;SDS011;1496;51.404;7.232;2023-12-22T09:04:00;16.07;;;4.17;;
2972;SDS011;1496;51.404;7.232;2023-12-22T09:06:26;14.87;;;4.10;;
2972;SDS011;1496;51.404;7.232;2023-12-22T09:08:52;18.93;;;3.37;;
2972;SDS011;1496;51.404;7.232;2023-12-22T09:11:21;14.03;;;3.63;;
2972;SDS011;1496;51.404;7.232;2023-12-22T09:13:53;14.00;;;4.67;;
2972;SDS011;1496;51.404;7.232;2023-12-22T09:16:22;17.97;;;3.80;;
2972;SDS011;1496;51.404;7.232;2023-12-22T09:18:49;25.67;;;6.43;;
2972;SDS011;1496;51.404;7.232;2023-12-22T09:21:15;26.00;;;3.63;;
2972;SDS011;1496;51.404;7.232;2023-12-22T09:23:43;18.20;;;2.90;;
2972;SDS011;1496;51.404;7.232;2023-12-22T09:26:11;12.30;;;2.27;;
2972;SDS011;1496;51.404;7.232;2023-12-22T09:28:37;14.23;;;2.40;;
2972;SDS011;1496;51.404;7.232;2023-12-22T09:31:03;16.40;;;2.37;;
2972;SDS011;1496;51.404;7.232;2023-12-22T09:33:30;10.60;;;2.20;;
2972;SDS011;1496;51.404;7.232;2023-12-22T09:35:56;9.63;;;2.67;;
2972;SDS011;1496;51.404;7.232;2023-12-22T09:38:22;10.43;;;2.33;;
2972;SDS011;1496;51.404;7.232;2023-12-22T09:40:49;5.63;;;1.70;;
2972;SDS011;1496;51.404;7.232;2023-12-22T09:43:15;6.67;;;1.60;;
2972;SDS011;1496;51.404;7.232;2023-12-22T09:45:44;4.87;;;1.70;;
2972;SDS011;1496;51.404;7.232;2023-12-22T09:48:11;6.07;;;1.67;;
2972;SDS011;1496;51.404;7.232;2023-12-22T09:50:42;9.10;;;2.60;;
2972;SDS011;1496;51.404;7.232;2023-12-22T09:53:10;9.63;;;2.23;;
2972;SDS011;1496;51.404;7.232;2023-12-22T09:55:38;5.33;;;2.00;;
2972;SDS011;1496;51.404;7.232;2023-12-22T09:58:11;3.30;;;1.60;;
2972;SDS011;1496;51.404;7.232;2023-12-22T10:00:39;5.67;;;1.83;;
2972;SDS011;1496;51.404;7.232;2023-12-22T10:03:05;4.90;;;2.47;;
2972;SDS011;1496;51.404;7.232;2023-12-22T10:05:32;12.17;;;3.70;;
2972;SDS011;1496;51.404;7.232;2023-12-22T10:08:00;8.30;;;2.70;;
2972;SDS011;1496;51.404;7.232;2023-12-22T10:10:29;9.30;;;2.70;;
2972;SDS011;1496;51.404;7.232;2023-12-22T10:12:56;8.87;;;3.30;;
2972;SDS011;1496;51.404;7.232;2023-12-22T10:15:23;9.73;;;2.97;;
2972;SDS011;1496;51.404;7.232;2023-12-22T10:17:53;13.23;;;4.70;;
2972;SDS011;1496;51.404;7.232;2023-12-22T10:20:19;8.43;;;3.60;;
2972;SDS011;1496;51.404;7.232;2023-12-22T10:22:45;11.53;;;3.37;;
2972;SDS011;1496;51.404;7.232;2023-12-22T10:25:14;14.20;;;3.20;;
2972;SDS011;1496;51.404;7.232;2023-12-22T10:27:42;12.10;;;3.97;;
2972;SDS011;1496;51.404;7.232;2023-12-22T10:30:08;10.40;;;3.73;;
2972;SDS011;1496;51.404;7.232;2023-12-22T10:32:39;6.07;;;3.17;;
2972;SDS011;1496;51.404;7.232;2023-12-22T10:35:07;11.43;;;3.80;;
2972;SDS011;1496;51.404;7.232;2023-12-22T10:37:33;10.70;;;3.03;;
2972;SDS011;1496;51.404;7.232;2023-12-22T10:39:59;8.80;;;3.30;;
2972;SDS011;1496;51.404;7.232;2023-12-22T10:42:24;9.07;;;3.20;;
2972;SDS011;1496;51.404;7.232;2023-12-22T10:44:51;11.07;;;4.27;;
2972;SDS011;1496;51.404;7.232;2023-12-22T10:47:17;7.60;;;4.13;;
2972;SDS011;1496;51.404;7.232;2023-12-22T10:49:43;12.00;;;4.50;;
2972;SDS011;1496;51.404;7.232;2023-12-22T10:52:15;8.30;;;4.43;;
2972;SDS011;1496;51.404;7.232;2023-12-22T10:54:42;12.57;;;4.73;;
2972;SDS011;1496;51.404;7.232;2023-12-22T10:57:09;18.83;;;5.37;;
2972;SDS011;1496;51.404;7.232;2023-12-22T10:59:35;15.63;;;5.97;;
2972;SDS011;1496;51.404;7.232;2023-12-22T11:02:09;15.13;;;6.00;;
2972;SDS011;1496;51.404;7.232;2023-12-22T11:04:41;16.33;;;6.07;;
2972;SDS011;1496;51.404;7.232;2023-12-22T11:07:12;22.33;;;4.83;;
2972;SDS011;1496;51.404;7.232;2023-12-22T11:09:39;18.40;;;5.47;;
2972;SDS011;1496;51.404;7.232;2023-12-22T11:12:09;7.43;;;2.53;;
2972;SDS011;1496;51.404;7.232;2023-12-22T11:14:36;11.23;;;2.20;;
2972;SDS011;1496;51.404;7.232;2023-12-22T11:17:04;8.33;;;1.73;;
2972;SDS011;1496;51.404;7.232;2023-12-22T11:19:31;8.33;;;1.90;;
2972;SDS011;1496;51.404;7.232;2023-12-22T11:22:00;6.30;;;1.83;;
2972;SDS011;1496;51.404;7.232;2023-12-22T11:24:29;7.83;;;1.40;;
2972;SDS011;1496;51.404;7.232;2023-12-22T11:26:57;5.53;;;1.70;;
2972;SDS011;1496;51.404;7.232;2023-12-22T11:29:24;4.50;;;1.20;;
2972;SDS011;1496;51.404;7.232;2023-12-22T11:31:51;5.20;;;1.30;;
2972;SDS011;1496;51.404;7.232;2023-12-22T11:34:21;3.83;;;1.53;;
2972;SDS011;1496;51.404;7.232;2023-12-22T11:36:48;2.13;;;1.10;;
2972;SDS011;1496;51.404;7.232;2023-12-22T11:39:16;4.03;;;1.20;;
2972;SDS011;1496;51.404;7.232;2023-12-22T11:41:42;3.53;;;1.13;;
2972;SDS011;1496;51.404;7.232;2023-12-22T11:44:09;5.13;;;1.37;;
2972;SDS011;1496;51.404;7.232;2023-12-22T11:46:35;4.43;;;1.20;;
2972;SDS011;1496;51.404;7.232;2023-12-22T11:49:01;6.23;;;1.70;;
2972;SDS011;1496;51.404;7.232;2023-12-22T11:51:31;6.40;;;1.57;;
2972;SDS011;1496;51.404;7.232;2023-12-22T11:54:00;4.57;;;1.63;;
2972;SDS011;1496;51.404;7.232;2023-12-22T11:56:26;8.37;;;2.50;;
2972;SDS011;1496;51.404;7.232;2023-12-22T11:58:54;2.40;;;1.80;;
2972;SDS011;1496;51.404;7.232;2023-12-22T12:01:23;3.00;;;1.80;;
2972;SDS011;1496;51.404;7.232;2023-12-22T12:03:49;4.00;;;2.40;;
2972;SDS011;1496;51.404;7.232;2023-12-22T12:08:52;4.10;;;2.90;;
2972;SDS011;1496;51.404;7.232;2023-12-22T12:11:19;6.17;;;2.60;;
2972;SDS011;1496;51.404;7.232;2023-12-22T12:13:45;4.17;;;2.00;;
2972;SDS011;1496;51.404;7.232;2023-12-22T12:16:12;4.57;;;2.47;;
2972;SDS011;1496;51.404;7.232;2023-12-22T12:18:39;8.63;;;2.37;;
2972;SDS011;1496;51.404;7.232;2023-12-22T12:21:09;6.17;;;2.93;;
2972;SDS011;1496;51.404;7.232;2023-12-22T12:23:36;5.80;;;2.33;;
2972;SDS011;1496;51.404;7.232;2023-12-22T12:26:03;3.10;;;2.10;;
2972;SDS011;1496;51.404;7.232;2023-12-22T12:28:32;6.90;;;2.93;;
2972;SDS011;1496;51.404;7.232;2023-12-22T12:31:00;3.20;;;1.93;;
2972;SDS011;1496;51.404;7.232;2023-12-22T12:33:28;6.17;;;2.00;;
2972;SDS011;1496;51.404;7.232;2023-12-22T12:35:55;2.50;;;2.30;;
2972;SDS011;1496;51.404;7.232;2023-12-22T12:38:23;6.20;;;2.60;;
2972;SDS011;1496;51.404;7.232;2023-12-22T12:41:12;5.27;;;2.27;;
2972;SDS011;1496;51.404;7.232;2023-12-22T12:43:42;11.30;;;2.60;;
2972;SDS011;1496;51.404;7.232;2023-12-22T12:46:08;3.30;;;2.60;;
2972;SDS011;1496;51.404;7.232;2023-12-22T12:48:35;8.13;;;2.50;;
2972;SDS011;1496;51.404;7.232;2023-12-22T12:51:04;2.90;;;2.53;;
2972;SDS011;1496;51.404;7.232;2023-12-22T12:53:34;3.90;;;2.47;;
2972;SDS011;1496;51.404;7.232;2023-12-22T12:56:04;5.07;;;1.93;;
2972;SDS011;1496;51.404;7.232;2023-12-22T12:58:30;6.23;;;2.03;;
2972;SDS011;1496;51.404;7.232;2023-12-22T13:01:04;3.80;;;2.00;;
2972;SDS011;1496;51.404;7.232;2023-12-22T13:03:33;7.97;;;2.30;;
2972;SDS011;1496;51.404;7.232;2023-12-22T13:06:17;2.30;;;1.10;;
2972;SDS011;1496;51.404;7.232;2023-12-22T13:08:49;3.63;;;1.03;;
2972;SDS011;1496;51.404;7.232;2023-12-22T13:11:20;4.20;;;1.37;;
2972;SDS011;1496;51.404;7.232;2023-12-22T13:13:47;4.13;;;1.63;;
2972;SDS011;1496;51.404;7.232;2023-12-22T13:16:16;5.93;;;1.60;;
2972;SDS011;1496;51.404;7.232;2023-12-22T13:18:44;3.00;;;1.93;;
2972;SDS011;1496;51.404;7.232;2023-12-22T13:21:10;3.10;;;2.00;;
2972;SDS011;1496;51.404;7.232;2023-12-22T13:23:36;3.20;;;2.10;;
2972;SDS011;1496;51.404;7.232;2023-12-22T13:26:01;4.33;;;2.47;;
2972;SDS011;1496;51.404;7.232;2023-12-22T13:28:27;4.60;;;1.43;;
2972;SDS011;1496;51.404;7.232;2023-12-22T13:30:53;6.00;;;1.50;;
2972;SDS011;1496;51.404;7.232;2023-12-22T13:33:19;4.57;;;1.63;;
2972;SDS011;1496;51.404;7.232;2023-12-22T13:35:45;2.87;;;1.43;;
2972;SDS011;1496;51.404;7.232;2023-12-22T13:38:12;3.97;;;1.57;;
2972;SDS011;1496;51.404;7.232;2023-12-22T13:40:38;3.13;;;1.27;;
2972;SDS011;1496;51.404;7.232;2023-12-22T13:43:09;5.00;;;1.20;;
2972;SDS011;1496;51.404;7.232;2023-12-22T13:45:34;3.20;;;1.10;;
2972;SDS011;1496;51.404;7.232;2023-12-22T13:48:00;5.30;;;1.30;;
2972;SDS011;1496;51.404;7.232;2023-12-22T13:50:26;4.80;;;1.77;;
2972;SDS011;1496;51.404;7.232;2023-12-22T13:52:52;5.07;;;1.40;;
2972;SDS011;1496;51.404;7.232;2023-12-22T13:55:18;7.93;;;1.73;;
2972;SDS011;1496;51.404;7.232;2023-12-22T13:57:45;5.43;;;1.97;;
2972;SDS011;1496;51.404;7.232;2023-12-22T14:02:46;7.33;;;2.30;;
2972;SDS011;1496;51.404;7.232;2023-12-22T14:05:14;3.33;;;1.70;;
2972;SDS011;1496;51.404;7.232;2023-12-22T14:07:40;5.20;;;2.37;;
2972;SDS011;1496;51.404;7.232;2023-12-22T14:10:08;2.37;;;1.80;;
2972;SDS011;1496;51.404;7.232;2023-12-22T14:12:35;5.47;;;2.10;;
2972;SDS011;1496;51.404;7.232;2023-12-22T14:15:08;4.60;;;1.83;;
2972;SDS011;1496;51.404;7.232;2023-12-22T14:17:36;5.13;;;2.03;;
2972;SDS011;1496;51.404;7.232;2023-12-22T14:20:02;6.40;;;2.20;;
2972;SDS011;1496;51.404;7.232;2023-12-22T14:22:30;5.73;;;1.87;;
2972;SDS011;1496;51.404;7.232;2023-12-22T14:24:55;3.30;;;1.73;;
2972;SDS011;1496;51.404;7.232;2023-12-22T14:27:24;3.40;;;1.80;;
2972;SDS011;1496;51.404;7.232;2023-12-22T14:29:50;5.27;;;1.93;;
2972;SDS011;1496;51.404;7.232;2023-12-22T14:32:15;10.40;;;2.33;;
2972;SDS011;1496;51.404;7.232;2023-12-22T14:34:44;3.77;;;1.90;;
2972;SDS011;1496;51.404;7.232;2023-12-22T14:37:10;13.07;;;2.47;;
2972;SDS011;1496;51.404;7.232;2023-12-22T14:39:36;6.80;;;1.93;;
2972;SDS011;1496;51.404;7.232;2023-12-22T14:42:01;6.70;;;2.20;;
2972;SDS011;1496;51.404;7.232;2023-12-22T14:44:30;9.13;;;2.50;;
2972;SDS011;1496;51.404;7.232;2023-12-22T14:46:56;5.90;;;1.67;;
2972;SDS011;1496;51.404;7.232;2023-12-22T14:49:21;6.10;;;1.97;;
2972;SDS011;1496;51.404;7.232;2023-12-22T14:51:47;3.73;;;1.73;;
2972;SDS011;1496;51.404;7.232;2023-12-22T14:54:18;5.73;;;1.47;;
2972;SDS011;1496;51.404;7.232;2023-12-22T14:56:44;6.27;;;1.47;;
2972;SDS011;1496;51.404;7.232;2023-12-22T14:59:10;1.83;;;1.60;;
2972;SDS011;1496;51.404;7.232;2023-12-22T15:01:37;9.73;;;1.73;;
2972;SDS011;1496;51.404;7.232;2023-12-22T15:04:06;2.83;;;1.93;;
2972;SDS011;1496;51.404;7.232;2023-12-22T15:06:32;3.37;;;1.50;;
2972;SDS011;1496;51.404;7.232;2023-12-22T15:08:58;8.40;;;2.03;;
2972;SDS011;1496;51.404;7.232;2023-12-22T15:11:24;6.10;;;1.73;;
2972;SDS011;1496;51.404;7.232;2023-12-22T15:13:54;5.23;;;1.40;;
2972;SDS011;1496;51.404;7.232;2023-12-22T15:16:20;7.10;;;1.77;;
2972;SDS011;1496;51.404;7.232;2023-12-22T15:18:45;6.00;;;2.00;;
2972;SDS011;1496;51.404;7.232;2023-12-22T15:21:21;3.30;;;1.50;;
2972;SDS011;1496;51.404;7.232;2023-12-22T15:23:48;4.20;;;1.73;;